sensor_id;sensor_type;location;lat;lon;timestamp;temperature;humidity
680;DHT22;322;48.846;9.230;2023-01-26T00:02:17;2.10;99.90
680;DHT22;322;48.846;9.230;2023-01-26T00:04:44;1.90;99.90
680;DHT22;322;48.846;9.230;2023-01-26T00:07:11;1.80;99.90
680;DHT22;322;48.846;9.230;2023-01-26T00:09:38;1.80;99.90
680;DHT22;322;48.846;9.230;2023-01-26T00:12:05;1.70;99.90
680;DHT22;322;48.846;9.230;2023-01-26T00:14:32;1.70;99.90
680;DHT22;322;48.846;9.230;2023-01-26T00:17:16;1.60;99.90
680;DHT22;322;48.846;9.230;2023-01-26T00:19:51;1.70;99.90
680;DHT22;322;48.846;9.230;2023-01-26T00:22:18;1.70;99.90
680;DHT22;322;48.846;9.230;2023-01-26T00:24:44;1.70;99.90
680;DHT22;322;48.846;9.230;2023-01-26T00:27:11;1.70;99.90
680;DHT22;322;48.846;9.230;2023-01-26T00:29:38;1.70;99.90
680;DHT22;322;48.846;9.230;2023-01-26T00:32:05;1.80;99.90
680;DHT22;322;48.846;9.230;2023-01-26T00:34:33;1.70;99.90
680;DHT22;322;48.846;9.230;2023-01-26T00:37:00;1.70;99.90
680;DHT22;322;48.846;9.230;2023-01-26T00:39:27;1.70;99.90
680;DHT22;322;48.846;9.230;2023-01-26T00:41:53;1.70;99.90
680;DHT22;322;48.846;9.230;2023-01-26T00:44:35;1.80;99.90
680;DHT22;322;48.846;9.230;2023-01-26T00:47:02;1.80;99.90
680;DHT22;322;48.846;9.230;2023-01-26T00:49:29;1.70;99.90
680;DHT22;322;48.846;9.230;2023-01-26T00:51:57;1.70;99.90
680;DHT22;322;48.846;9.230;2023-01-26T00:54:24;1.70;99.90
680;DHT22;322;48.846;9.230;2023-01-26T00:56:51;1.80;99.90
680;DHT22;322;48.846;9.230;2023-01-26T00:59:18;1.80;99.90
680;DHT22;322;48.846;9.230;2023-01-26T01:01:45;1.80;99.90
680;DHT22;322;48.846;9.230;2023-01-26T01:04:11;1.80;99.90
680;DHT22;322;48.846;9.230;2023-01-26T01:06:38;1.80;99.90
680;DHT22;322;48.846;9.230;2023-01-26T01:09:07;1.70;99.90
680;DHT22;322;48.846;9.230;2023-01-26T01:11:34;1.70;99.90
680;DHT22;322;48.846;9.230;2023-01-26T01:14:01;1.60;99.90
680;DHT22;322;48.846;9.230;2023-01-26T01:16:28;1.60;99.90
680;DHT22;322;48.846;9.230;2023-01-26T01:18:54;1.60;99.90
680;DHT22;322;48.846;9.230;2023-01-26T01:21:22;1.60;99.90
680;DHT22;322;48.846;9.230;2023-01-26T01:23:49;1.60;99.90
680;DHT22;322;48.846;9.230;2023-01-26T01:26:18;1.50;99.90
680;DHT22;322;48.846;9.230;2023-01-26T01:28:44;1.50;99.90
680;DHT22;322;48.846;9.230;2023-01-26T01:31:13;1.50;99.90
680;DHT22;322;48.846;9.230;2023-01-26T01:33:40;1.40;99.90
680;DHT22;322;48.846;9.230;2023-01-26T01:36:10;1.40;99.90
680;DHT22;322;48.846;9.230;2023-01-26T01:38:37;1.40;99.90
680;DHT22;322;48.846;9.230;2023-01-26T01:41:04;1.40;99.90
680;DHT22;322;48.846;9.230;2023-01-26T01:43:33;1.40;99.90
680;DHT22;322;48.846;9.230;2023-01-26T01:46:01;1.40;99.90
680;DHT22;322;48.846;9.230;2023-01-26T01:48:33;1.30;99.90
680;DHT22;322;48.846;9.230;2023-01-26T01:51:04;1.30;99.90
680;DHT22;322;48.846;9.230;2023-01-26T01:53:37;1.30;99.90
680;DHT22;322;48.846;9.230;2023-01-26T01:56:07;1.30;99.90
680;DHT22;322;48.846;9.230;2023-01-26T01:58:40;1.30;99.90
680;DHT22;322;48.846;9.230;2023-01-26T02:01:08;1.30;99.90
680;DHT22;322;48.846;9.230;2023-01-26T02:03:36;1.30;99.90
680;DHT22;322;48.846;9.230;2023-01-26T02:06:07;1.30;99.90
680;DHT22;322;48.846;9.230;2023-01-26T02:08:38;1.30;99.90
680;DHT22;322;48.846;9.230;2023-01-26T02:11:08;1.30;99.90
680;DHT22;322;48.846;9.230;2023-01-26T02:13:37;1.30;99.90
680;DHT22;322;48.846;9.230;2023-01-26T02:16:05;1.30;99.90
680;DHT22;322;48.846;9.230;2023-01-26T02:18:32;1.30;99.90
680;DHT22;322;48.846;9.230;2023-01-26T02:21:00;1.30;99.90
680;DHT22;322;48.846;9.230;2023-01-26T02:23:46;1.30;99.90
680;DHT22;322;48.846;9.230;2023-01-26T02:26:17;1.30;99.90
680;DHT22;322;48.846;9.230;2023-01-26T02:28:48;1.40;99.90
680;DHT22;322;48.846;9.230;2023-01-26T02:31:15;1.30;99.90
680;DHT22;322;48.846;9.230;2023-01-26T02:33:43;1.30;99.90
680;DHT22;322;48.846;9.230;2023-01-26T02:36:17;1.30;99.90
680;DHT22;322;48.846;9.230;2023-01-26T02:38:50;1.30;99.90
680;DHT22;322;48.846;9.230;2023-01-26T02:41:20;1.30;99.90
680;DHT22;322;48.846;9.230;2023-01-26T02:44:02;1.30;99.90
680;DHT22;322;48.846;9.230;2023-01-26T02:46:29;1.30;99.90
680;DHT22;322;48.846;9.230;2023-01-26T02:48:56;1.30;99.90
680;DHT22;322;48.846;9.230;2023-01-26T02:51:40;1.20;99.90
680;DHT22;322;48.846;9.230;2023-01-26T02:54:07;1.20;99.90
680;DHT22;322;48.846;9.230;2023-01-26T02:56:35;1.20;99.90
680;DHT22;322;48.846;9.230;2023-01-26T02:59:04;1.20;99.90
680;DHT22;322;48.846;9.230;2023-01-26T03:01:31;1.30;99.90
680;DHT22;322;48.846;9.230;2023-01-26T03:03:57;1.20;99.90
680;DHT22;322;48.846;9.230;2023-01-26T03:06:24;1.20;99.90
680;DHT22;322;48.846;9.230;2023-01-26T03:08:51;1.30;99.90
680;DHT22;322;48.846;9.230;2023-01-26T03:11:18;1.20;99.90
680;DHT22;322;48.846;9.230;2023-01-26T03:13:46;1.20;99.90
680;DHT22;322;48.846;9.230;2023-01-26T03:16:12;1.10;99.90
680;DHT22;322;48.846;9.230;2023-01-26T03:18:43;1.10;99.90
680;DHT22;322;48.846;9.230;2023-01-26T03:21:27;1.10;99.90
680;DHT22;322;48.846;9.230;2023-01-26T03:24:12;1.10;99.90
680;DHT22;322;48.846;9.230;2023-01-26T03:26:56;1.10;99.90
680;DHT22;322;48.846;9.230;2023-01-26T03:29:42;1.10;99.90
680;DHT22;322;48.846;9.230;2023-01-26T03:32:09;1.10;99.90
680;DHT22;322;48.846;9.230;2023-01-26T03:34:35;1.10;99.90
680;DHT22;322;48.846;9.230;2023-01-26T03:37:02;1.10;99.90
680;DHT22;322;48.846;9.230;2023-01-26T03:39:29;1.10;99.90
680;DHT22;322;48.846;9.230;2023-01-26T03:42:13;1.10;99.90
680;DHT22;322;48.846;9.230;2023-01-26T03:44:59;1.00;99.90
680;DHT22;322;48.846;9.230;2023-01-26T03:47:43;1.00;99.90
680;DHT22;322;48.846;9.230;2023-01-26T03:50:27;1.00;99.90
680;DHT22;322;48.846;9.230;2023-01-26T03:53:13;1.10;99.90
680;DHT22;322;48.846;9.230;2023-01-26T03:55:57;1.20;99.90
680;DHT22;322;48.846;9.230;2023-01-26T03:58:43;1.20;99.90
680;DHT22;322;48.846;9.230;2023-01-26T04:01:11;1.20;99.90
680;DHT22;322;48.846;9.230;2023-01-26T04:03:45;1.20;99.90
680;DHT22;322;48.846;9.230;2023-01-26T04:06:30;1.20;99.90
680;DHT22;322;48.846;9.230;2023-01-26T04:09:14;1.20;99.90
680;DHT22;322;48.846;9.230;2023-01-26T04:11:41;1.20;99.90
680;DHT22;322;48.846;9.230;2023-01-26T04:14:10;1.20;99.90
680;DHT22;322;48.846;9.230;2023-01-26T04:16:56;1.10;99.90
680;DHT22;322;48.846;9.230;2023-01-26T04:19:41;1.10;99.90
680;DHT22;322;48.846;9.230;2023-01-26T04:22:24;1.00;99.90
680;DHT22;322;48.846;9.230;2023-01-26T04:24:51;1.00;99.90
680;DHT22;322;48.846;9.230;2023-01-26T04:27:18;1.00;99.90
680;DHT22;322;48.846;9.230;2023-01-26T04:29:45;1.00;99.90
680;DHT22;322;48.846;9.230;2023-01-26T04:32:13;1.00;99.90
680;DHT22;322;48.846;9.230;2023-01-26T04:34:40;1.00;99.90
680;DHT22;322;48.846;9.230;2023-01-26T04:37:07;1.00;99.90
680;DHT22;322;48.846;9.230;2023-01-26T04:39:34;1.00;99.90
680;DHT22;322;48.846;9.230;2023-01-26T04:42:01;1.00;99.90
680;DHT22;322;48.846;9.230;2023-01-26T04:44:28;1.00;99.90
680;DHT22;322;48.846;9.230;2023-01-26T04:46:54;1.00;99.90
680;DHT22;322;48.846;9.230;2023-01-26T04:49:23;1.00;99.90
680;DHT22;322;48.846;9.230;2023-01-26T04:51:49;1.00;99.90
680;DHT22;322;48.846;9.230;2023-01-26T04:54:16;0.90;99.90
680;DHT22;322;48.846;9.230;2023-01-26T04:56:43;0.90;99.90
680;DHT22;322;48.846;9.230;2023-01-26T04:59:10;0.90;99.90
680;DHT22;322;48.846;9.230;2023-01-26T05:01:37;0.90;99.90
680;DHT22;322;48.846;9.230;2023-01-26T05:04:05;0.90;99.90
680;DHT22;322;48.846;9.230;2023-01-26T05:06:33;0.90;99.90
680;DHT22;322;48.846;9.230;2023-01-26T05:09:00;0.90;99.90
680;DHT22;322;48.846;9.230;2023-01-26T05:11:26;0.90;99.90
680;DHT22;322;48.846;9.230;2023-01-26T05:13:53;0.80;99.90
680;DHT22;322;48.846;9.230;2023-01-26T05:16:20;0.80;99.90
680;DHT22;322;48.846;9.230;2023-01-26T05:18:47;0.80;99.90
680;DHT22;322;48.846;9.230;2023-01-26T05:21:13;0.90;99.90
680;DHT22;322;48.846;9.230;2023-01-26T05:23:42;0.90;99.90
680;DHT22;322;48.846;9.230;2023-01-26T05:26:08;0.90;99.90
680;DHT22;322;48.846;9.230;2023-01-26T05:28:35;0.80;99.90
680;DHT22;322;48.846;9.230;2023-01-26T05:31:02;0.80;99.90
680;DHT22;322;48.846;9.230;2023-01-26T05:33:29;0.80;99.90
680;DHT22;322;48.846;9.230;2023-01-26T05:35:56;0.80;99.90
680;DHT22;322;48.846;9.230;2023-01-26T05:38:23;0.80;99.90
680;DHT22;322;48.846;9.230;2023-01-26T05:40:52;0.90;99.90
680;DHT22;322;48.846;9.230;2023-01-26T05:43:18;0.80;99.90
680;DHT22;322;48.846;9.230;2023-01-26T05:45:45;0.80;99.90
680;DHT22;322;48.846;9.230;2023-01-26T05:48:12;0.80;99.90
680;DHT22;322;48.846;9.230;2023-01-26T05:50:39;0.80;99.90
680;DHT22;322;48.846;9.230;2023-01-26T05:53:05;0.80;99.90
680;DHT22;322;48.846;9.230;2023-01-26T05:55:32;0.80;99.90
680;DHT22;322;48.846;9.230;2023-01-26T05:58:00;0.80;99.90
680;DHT22;322;48.846;9.230;2023-01-26T06:00:27;0.80;99.90
680;DHT22;322;48.846;9.230;2023-01-26T06:02:54;0.80;99.90
680;DHT22;322;48.846;9.230;2023-01-26T06:05:20;0.90;99.90
680;DHT22;322;48.846;9.230;2023-01-26T06:07:47;0.90;99.90
680;DHT22;322;48.846;9.230;2023-01-26T06:10:14;0.90;99.90
680;DHT22;322;48.846;9.230;2023-01-26T06:12:41;0.90;99.90
680;DHT22;322;48.846;9.230;2023-01-26T06:15:10;0.90;99.90
680;DHT22;322;48.846;9.230;2023-01-26T06:17:38;0.80;99.90
680;DHT22;322;48.846;9.230;2023-01-26T06:20:06;0.80;99.90
680;DHT22;322;48.846;9.230;2023-01-26T06:22:33;0.80;99.90
680;DHT22;322;48.846;9.230;2023-01-26T06:25:01;0.80;99.90
680;DHT22;322;48.846;9.230;2023-01-26T06:27:27;0.80;99.90
680;DHT22;322;48.846;9.230;2023-01-26T06:29:54;0.70;99.90
680;DHT22;322;48.846;9.230;2023-01-26T06:32:22;0.80;99.90
680;DHT22;322;48.846;9.230;2023-01-26T06:34:49;0.80;99.90
680;DHT22;322;48.846;9.230;2023-01-26T06:37:17;0.80;99.90
680;DHT22;322;48.846;9.230;2023-01-26T06:39:44;0.80;99.90
680;DHT22;322;48.846;9.230;2023-01-26T06:42:11;0.80;99.90
680;DHT22;322;48.846;9.230;2023-01-26T06:44:38;0.80;99.90
680;DHT22;322;48.846;9.230;2023-01-26T06:47:05;0.70;99.90
680;DHT22;322;48.846;9.230;2023-01-26T06:49:33;0.70;99.90
680;DHT22;322;48.846;9.230;2023-01-26T06:52:03;0.70;99.90
680;DHT22;322;48.846;9.230;2023-01-26T06:54:30;0.80;99.90
680;DHT22;322;48.846;9.230;2023-01-26T06:56:57;0.70;99.90
680;DHT22;322;48.846;9.230;2023-01-26T06:59:24;0.70;99.90
680;DHT22;322;48.846;9.230;2023-01-26T07:01:51;0.70;99.90
680;DHT22;322;48.846;9.230;2023-01-26T07:04:17;0.70;99.90
680;DHT22;322;48.846;9.230;2023-01-26T07:06:45;0.70;99.90
680;DHT22;322;48.846;9.230;2023-01-26T07:09:12;0.70;99.90
680;DHT22;322;48.846;9.230;2023-01-26T07:11:39;0.80;99.90
680;DHT22;322;48.846;9.230;2023-01-26T07:14:06;0.80;99.90
680;DHT22;322;48.846;9.230;2023-01-26T07:16:32;0.80;99.90
680;DHT22;322;48.846;9.230;2023-01-26T07:18:59;0.80;99.90
680;DHT22;322;48.846;9.230;2023-01-26T07:21:26;0.80;99.90
680;DHT22;322;48.846;9.230;2023-01-26T07:23:55;0.70;99.90
680;DHT22;322;48.846;9.230;2023-01-26T07:26:22;0.70;99.90
680;DHT22;322;48.846;9.230;2023-01-26T07:28:49;0.70;99.90
680;DHT22;322;48.846;9.230;2023-01-26T07:31:16;0.80;99.90
680;DHT22;322;48.846;9.230;2023-01-26T07:33:42;0.80;99.90
680;DHT22;322;48.846;9.230;2023-01-26T07:36:09;0.80;99.90
680;DHT22;322;48.846;9.230;2023-01-26T07:38:36;0.80;99.90
680;DHT22;322;48.846;9.230;2023-01-26T07:41:07;0.70;99.90
680;DHT22;322;48.846;9.230;2023-01-26T07:43:34;0.70;99.90
680;DHT22;322;48.846;9.230;2023-01-26T07:46:01;0.60;99.90
680;DHT22;322;48.846;9.230;2023-01-26T07:48:28;0.60;99.90
680;DHT22;322;48.846;9.230;2023-01-26T07:50:57;0.60;99.90
680;DHT22;322;48.846;9.230;2023-01-26T07:53:25;0.60;99.90
680;DHT22;322;48.846;9.230;2023-01-26T07:55:54;0.60;99.90
680;DHT22;322;48.846;9.230;2023-01-26T07:58:23;0.60;99.90
680;DHT22;322;48.846;9.230;2023-01-26T08:00:49;0.60;99.90
680;DHT22;322;48.846;9.230;2023-01-26T08:03:16;0.60;99.90
680;DHT22;322;48.846;9.230;2023-01-26T08:05:43;0.80;99.90
680;DHT22;322;48.846;9.230;2023-01-26T08:08:11;0.90;99.90
680;DHT22;322;48.846;9.230;2023-01-26T08:10:38;0.90;99.90
680;DHT22;322;48.846;9.230;2023-01-26T08:13:05;1.00;99.90
680;DHT22;322;48.846;9.230;2023-01-26T08:15:33;1.00;99.90
680;DHT22;322;48.846;9.230;2023-01-26T08:18:00;1.20;99.90
680;DHT22;322;48.846;9.230;2023-01-26T08:20:28;1.20;99.90
680;DHT22;322;48.846;9.230;2023-01-26T08:22:55;1.20;99.90
680;DHT22;322;48.846;9.230;2023-01-26T08:25:22;1.20;99.90
680;DHT22;322;48.846;9.230;2023-01-26T08:27:48;1.10;99.90
680;DHT22;322;48.846;9.230;2023-01-26T08:30:16;1.10;99.90
680;DHT22;322;48.846;9.230;2023-01-26T08:32:44;1.20;99.90
680;DHT22;322;48.846;9.230;2023-01-26T08:35:11;1.20;99.90
680;DHT22;322;48.846;9.230;2023-01-26T08:37:38;1.30;99.90
680;DHT22;322;48.846;9.230;2023-01-26T08:40:05;1.40;99.90
680;DHT22;322;48.846;9.230;2023-01-26T08:42:32;1.50;99.90
680;DHT22;322;48.846;9.230;2023-01-26T08:44:59;1.40;99.90
680;DHT22;322;48.846;9.230;2023-01-26T08:47:26;1.40;99.90
680;DHT22;322;48.846;9.230;2023-01-26T08:49:54;1.40;99.90
680;DHT22;322;48.846;9.230;2023-01-26T08:52:20;1.50;99.90
680;DHT22;322;48.846;9.230;2023-01-26T08:54:47;1.50;99.90
680;DHT22;322;48.846;9.230;2023-01-26T08:57:14;1.50;99.90
680;DHT22;322;48.846;9.230;2023-01-26T08:59:41;1.40;99.90
680;DHT22;322;48.846;9.230;2023-01-26T09:02:08;1.40;99.90
680;DHT22;322;48.846;9.230;2023-01-26T09:04:35;1.40;99.90
680;DHT22;322;48.846;9.230;2023-01-26T09:07:03;1.40;99.90
680;DHT22;322;48.846;9.230;2023-01-26T09:09:30;1.30;99.90
680;DHT22;322;48.846;9.230;2023-01-26T09:11:57;1.20;99.90
680;DHT22;322;48.846;9.230;2023-01-26T09:14:24;1.20;99.90
680;DHT22;322;48.846;9.230;2023-01-26T09:16:51;1.20;99.90
680;DHT22;322;48.846;9.230;2023-01-26T09:19:18;1.20;99.90
680;DHT22;322;48.846;9.230;2023-01-26T09:21:45;1.20;99.90
680;DHT22;322;48.846;9.230;2023-01-26T09:24:13;1.20;99.90
680;DHT22;322;48.846;9.230;2023-01-26T09:26:40;1.20;99.90
680;DHT22;322;48.846;9.230;2023-01-26T09:29:07;1.10;99.90
680;DHT22;322;48.846;9.230;2023-01-26T09:31:33;1.10;99.90
680;DHT22;322;48.846;9.230;2023-01-26T09:34:00;1.10;99.90
680;DHT22;322;48.846;9.230;2023-01-26T09:36:27;1.10;99.90
680;DHT22;322;48.846;9.230;2023-01-26T09:38:53;1.10;99.90
680;DHT22;322;48.846;9.230;2023-01-26T09:41:36;1.10;99.90
680;DHT22;322;48.846;9.230;2023-01-26T09:44:09;1.10;99.90
680;DHT22;322;48.846;9.230;2023-01-26T09:46:45;1.10;99.90
680;DHT22;322;48.846;9.230;2023-01-26T09:49:18;1.20;99.90
680;DHT22;322;48.846;9.230;2023-01-26T09:51:49;1.20;99.90
680;DHT22;322;48.846;9.230;2023-01-26T09:54:25;1.20;99.90
680;DHT22;322;48.846;9.230;2023-01-26T09:56:54;1.20;99.90
680;DHT22;322;48.846;9.230;2023-01-26T09:59:27;1.20;99.90
680;DHT22;322;48.846;9.230;2023-01-26T10:02:01;1.20;99.90
680;DHT22;322;48.846;9.230;2023-01-26T10:04:33;1.10;99.90
680;DHT22;322;48.846;9.230;2023-01-26T10:07:04;1.10;99.90
680;DHT22;322;48.846;9.230;2023-01-26T10:09:36;1.00;99.90
680;DHT22;322;48.846;9.230;2023-01-26T10:12:07;1.00;99.90
680;DHT22;322;48.846;9.230;2023-01-26T10:14:36;1.00;99.90
680;DHT22;322;48.846;9.230;2023-01-26T10:17:11;0.90;99.90
680;DHT22;322;48.846;9.230;2023-01-26T10:19:43;1.00;99.90
680;DHT22;322;48.846;9.230;2023-01-26T10:22:14;0.90;99.90
680;DHT22;322;48.846;9.230;2023-01-26T10:24:42;0.90;99.90
680;DHT22;322;48.846;9.230;2023-01-26T10:27:11;0.90;99.90
680;DHT22;322;48.846;9.230;2023-01-26T10:29:39;1.00;99.90
680;DHT22;322;48.846;9.230;2023-01-26T10:32:11;1.10;99.90
680;DHT22;322;48.846;9.230;2023-01-26T10:34:39;1.10;99.90
680;DHT22;322;48.846;9.230;2023-01-26T10:37:18;1.00;99.90
680;DHT22;322;48.846;9.230;2023-01-26T10:39:57;1.00;99.90
680;DHT22;322;48.846;9.230;2023-01-26T10:42:27;1.00;99.90
680;DHT22;322;48.846;9.230;2023-01-26T10:44:55;0.90;99.90
680;DHT22;322;48.846;9.230;2023-01-26T10:47:22;1.00;99.90
680;DHT22;322;48.846;9.230;2023-01-26T10:49:50;1.00;99.90
680;DHT22;322;48.846;9.230;2023-01-26T10:52:18;1.00;99.90
680;DHT22;322;48.846;9.230;2023-01-26T10:54:46;1.00;99.90
680;DHT22;322;48.846;9.230;2023-01-26T10:57:21;1.10;99.90
680;DHT22;322;48.846;9.230;2023-01-26T10:59:54;1.10;99.90
680;DHT22;322;48.846;9.230;2023-01-26T11:02:24;1.10;99.90
680;DHT22;322;48.846;9.230;2023-01-26T11:05:18;1.10;99.90
680;DHT22;322;48.846;9.230;2023-01-26T11:07:47;1.00;99.90
680;DHT22;322;48.846;9.230;2023-01-26T11:10:20;1.00;99.90
680;DHT22;322;48.846;9.230;2023-01-26T11:12:48;1.10;99.90
680;DHT22;322;48.846;9.230;2023-01-26T11:15:18;1.10;99.90
680;DHT22;322;48.846;9.230;2023-01-26T11:17:50;1.10;99.90
680;DHT22;322;48.846;9.230;2023-01-26T11:20:41;1.10;99.90
680;DHT22;322;48.846;9.230;2023-01-26T11:23:22;1.10;99.90
680;DHT22;322;48.846;9.230;2023-01-26T11:26:11;1.20;99.90
680;DHT22;322;48.846;9.230;2023-01-26T11:28:53;1.20;99.90
680;DHT22;322;48.846;9.230;2023-01-26T11:31:32;1.20;99.90
680;DHT22;322;48.846;9.230;2023-01-26T11:34:08;1.30;99.90
680;DHT22;322;48.846;9.230;2023-01-26T11:36:42;1.30;99.90
680;DHT22;322;48.846;9.230;2023-01-26T11:39:20;1.20;99.90
680;DHT22;322;48.846;9.230;2023-01-26T11:41:58;1.20;99.90
680;DHT22;322;48.846;9.230;2023-01-26T11:44:42;1.20;99.90
680;DHT22;322;48.846;9.230;2023-01-26T11:47:22;1.10;99.90
680;DHT22;322;48.846;9.230;2023-01-26T11:50:01;1.10;99.90
680;DHT22;322;48.846;9.230;2023-01-26T11:52:34;1.10;99.90
680;DHT22;322;48.846;9.230;2023-01-26T11:55:19;1.10;99.90
680;DHT22;322;48.846;9.230;2023-01-26T11:58:11;1.00;99.90
680;DHT22;322;48.846;9.230;2023-01-26T12:00:41;1.00;99.90
680;DHT22;322;48.846;9.230;2023-01-26T12:03:17;1.00;99.90
680;DHT22;322;48.846;9.230;2023-01-26T12:05:49;1.00;99.90
680;DHT22;322;48.846;9.230;2023-01-26T12:08:22;1.00;99.90
680;DHT22;322;48.846;9.230;2023-01-26T12:11:03;0.90;99.90
680;DHT22;322;48.846;9.230;2023-01-26T12:13:48;0.90;99.90
680;DHT22;322;48.846;9.230;2023-01-26T12:16:17;0.90;99.90
680;DHT22;322;48.846;9.230;2023-01-26T12:18:55;1.00;99.90
680;DHT22;322;48.846;9.230;2023-01-26T12:21:25;1.00;99.90
680;DHT22;322;48.846;9.230;2023-01-26T12:23:58;1.10;99.90
680;DHT22;322;48.846;9.230;2023-01-26T12:26:30;1.00;99.90
680;DHT22;322;48.846;9.230;2023-01-26T12:29:02;1.00;99.90
680;DHT22;322;48.846;9.230;2023-01-26T12:31:39;1.00;99.90
680;DHT22;322;48.846;9.230;2023-01-26T12:34:11;0.90;99.90
680;DHT22;322;48.846;9.230;2023-01-26T12:36:44;0.90;99.90
680;DHT22;322;48.846;9.230;2023-01-26T12:39:16;0.90;99.90
680;DHT22;322;48.846;9.230;2023-01-26T12:42:02;1.00;99.90
680;DHT22;322;48.846;9.230;2023-01-26T12:44:37;1.00;99.90
680;DHT22;322;48.846;9.230;2023-01-26T12:47:11;1.10;99.90
680;DHT22;322;48.846;9.230;2023-01-26T12:49:45;1.20;99.90
680;DHT22;322;48.846;9.230;2023-01-26T12:52:18;1.20;99.90
680;DHT22;322;48.846;9.230;2023-01-26T12:54:53;1.20;99.90
680;DHT22;322;48.846;9.230;2023-01-26T12:57:23;1.30;99.90
680;DHT22;322;48.846;9.230;2023-01-26T12:59:51;1.30;99.90
680;DHT22;322;48.846;9.230;2023-01-26T13:02:26;1.30;99.90
680;DHT22;322;48.846;9.230;2023-01-26T13:04:56;1.20;99.90
680;DHT22;322;48.846;9.230;2023-01-26T13:07:32;1.20;99.90
680;DHT22;322;48.846;9.230;2023-01-26T13:10:21;1.20;99.90
680;DHT22;322;48.846;9.230;2023-01-26T13:12:49;1.10;99.90
680;DHT22;322;48.846;9.230;2023-01-26T13:15:18;1.00;99.90
680;DHT22;322;48.846;9.230;2023-01-26T13:17:53;0.90;99.90
680;DHT22;322;48.846;9.230;2023-01-26T13:23:40;1.10;99.90
680;DHT22;322;48.846;9.230;2023-01-26T13:29:30;1.20;99.90
680;DHT22;322;48.846;9.230;2023-01-26T13:31:59;1.20;99.90
680;DHT22;322;48.846;9.230;2023-01-26T13:34:30;1.20;99.90
680;DHT22;322;48.846;9.230;2023-01-26T13:37:04;1.20;99.90
680;DHT22;322;48.846;9.230;2023-01-26T13:39:37;1.10;99.90
680;DHT22;322;48.846;9.230;2023-01-26T13:42:15;1.10;99.90
680;DHT22;322;48.846;9.230;2023-01-26T13:44:49;1.10;99.90
680;DHT22;322;48.846;9.230;2023-01-26T13:47:20;1.20;99.90
680;DHT22;322;48.846;9.230;2023-01-26T13:49:49;1.30;99.90
680;DHT22;322;48.846;9.230;2023-01-26T13:52:18;1.40;99.90
680;DHT22;322;48.846;9.230;2023-01-26T13:54:48;1.40;99.90
680;DHT22;322;48.846;9.230;2023-01-26T13:57:20;1.40;99.90
680;DHT22;322;48.846;9.230;2023-01-26T13:59:48;1.30;99.90
680;DHT22;322;48.846;9.230;2023-01-26T14:02:23;1.30;99.90
680;DHT22;322;48.846;9.230;2023-01-26T14:04:51;1.40;99.90
680;DHT22;322;48.846;9.230;2023-01-26T14:07:23;1.40;99.90
680;DHT22;322;48.846;9.230;2023-01-26T14:09:52;1.50;99.90
680;DHT22;322;48.846;9.230;2023-01-26T14:12:22;1.60;99.90
680;DHT22;322;48.846;9.230;2023-01-26T14:14:51;1.50;99.90
680;DHT22;322;48.846;9.230;2023-01-26T14:17:26;1.40;99.90
680;DHT22;322;48.846;9.230;2023-01-26T14:19:53;1.40;99.90
680;DHT22;322;48.846;9.230;2023-01-26T14:22:20;1.30;99.90
680;DHT22;322;48.846;9.230;2023-01-26T14:24:48;1.20;99.90
680;DHT22;322;48.846;9.230;2023-01-26T14:27:27;1.20;99.90
680;DHT22;322;48.846;9.230;2023-01-26T14:29:55;1.10;99.90
680;DHT22;322;48.846;9.230;2023-01-26T14:32:22;1.10;99.90
680;DHT22;322;48.846;9.230;2023-01-26T14:34:51;1.10;99.90
680;DHT22;322;48.846;9.230;2023-01-26T14:37:18;1.10;99.90
680;DHT22;322;48.846;9.230;2023-01-26T14:39:45;1.10;99.90
680;DHT22;322;48.846;9.230;2023-01-26T14:42:13;1.10;99.90
680;DHT22;322;48.846;9.230;2023-01-26T14:44:42;1.10;99.90
680;DHT22;322;48.846;9.230;2023-01-26T14:47:14;1.10;99.90
680;DHT22;322;48.846;9.230;2023-01-26T14:49:45;1.10;99.90
680;DHT22;322;48.846;9.230;2023-01-26T14:52:21;1.20;99.90
680;DHT22;322;48.846;9.230;2023-01-26T14:54:50;1.20;99.90
680;DHT22;322;48.846;9.230;2023-01-26T14:57:20;1.20;99.90
680;DHT22;322;48.846;9.230;2023-01-26T14:59:52;1.30;99.90
680;DHT22;322;48.846;9.230;2023-01-26T15:02:21;1.30;99.90
680;DHT22;322;48.846;9.230;2023-01-26T15:04:52;1.20;99.90
680;DHT22;322;48.846;9.230;2023-01-26T15:10:25;1.20;99.90
680;DHT22;322;48.846;9.230;2023-01-26T15:12:57;1.30;99.90
680;DHT22;322;48.846;9.230;2023-01-26T15:15:27;1.20;99.90
680;DHT22;322;48.846;9.230;2023-01-26T15:18:03;1.20;99.90
680;DHT22;322;48.846;9.230;2023-01-26T15:20:41;1.30;99.90
680;DHT22;322;48.846;9.230;2023-01-26T15:23:21;1.30;99.90
680;DHT22;322;48.846;9.230;2023-01-26T15:25:48;1.20;99.90
680;DHT22;322;48.846;9.230;2023-01-26T15:28:17;1.20;99.90
680;DHT22;322;48.846;9.230;2023-01-26T15:30:48;1.20;99.90
680;DHT22;322;48.846;9.230;2023-01-26T15:33:43;1.30;99.90
680;DHT22;322;48.846;9.230;2023-01-26T15:36:24;1.30;99.90
680;DHT22;322;48.846;9.230;2023-01-26T15:38:56;1.20;99.90
680;DHT22;322;48.846;9.230;2023-01-26T15:41:24;1.10;99.90
680;DHT22;322;48.846;9.230;2023-01-26T15:43:50;1.20;99.90
680;DHT22;322;48.846;9.230;2023-01-26T15:46:18;1.10;99.90
680;DHT22;322;48.846;9.230;2023-01-26T15:48:45;1.20;99.90
680;DHT22;322;48.846;9.230;2023-01-26T15:51:13;1.20;99.90
680;DHT22;322;48.846;9.230;2023-01-26T15:53:40;1.30;99.90
680;DHT22;322;48.846;9.230;2023-01-26T15:56:10;1.30;99.90
680;DHT22;322;48.846;9.230;2023-01-26T15:58:37;1.30;99.90
680;DHT22;322;48.846;9.230;2023-01-26T16:01:05;1.40;99.90
680;DHT22;322;48.846;9.230;2023-01-26T16:03:33;1.40;99.90
680;DHT22;322;48.846;9.230;2023-01-26T16:06:00;1.40;99.90
680;DHT22;322;48.846;9.230;2023-01-26T16:08:27;1.40;99.90
680;DHT22;322;48.846;9.230;2023-01-26T16:10:54;1.50;99.90
680;DHT22;322;48.846;9.230;2023-01-26T16:13:21;1.40;99.90
680;DHT22;322;48.846;9.230;2023-01-26T16:15:50;1.50;99.90
680;DHT22;322;48.846;9.230;2023-01-26T16:18:17;1.50;99.90
680;DHT22;322;48.846;9.230;2023-01-26T16:20:47;1.50;99.90
680;DHT22;322;48.846;9.230;2023-01-26T16:23:17;1.50;99.90
680;DHT22;322;48.846;9.230;2023-01-26T16:25:44;1.40;99.90
680;DHT22;322;48.846;9.230;2023-01-26T16:28:11;1.40;99.90
680;DHT22;322;48.846;9.230;2023-01-26T16:30:38;1.30;99.90
680;DHT22;322;48.846;9.230;2023-01-26T16:33:05;1.30;99.90
680;DHT22;322;48.846;9.230;2023-01-26T16:35:33;1.30;99.90
680;DHT22;322;48.846;9.230;2023-01-26T16:38:03;1.30;99.90
680;DHT22;322;48.846;9.230;2023-01-26T16:40:32;1.30;99.90
680;DHT22;322;48.846;9.230;2023-01-26T16:43:00;1.20;99.90
680;DHT22;322;48.846;9.230;2023-01-26T16:45:27;1.20;99.90
680;DHT22;322;48.846;9.230;2023-01-26T16:47:55;1.20;99.90
680;DHT22;322;48.846;9.230;2023-01-26T16:50:25;1.20;99.90
680;DHT22;322;48.846;9.230;2023-01-26T16:52:51;1.20;99.90
680;DHT22;322;48.846;9.230;2023-01-26T16:55:20;1.20;99.90
680;DHT22;322;48.846;9.230;2023-01-26T16:57:47;1.20;99.90
680;DHT22;322;48.846;9.230;2023-01-26T17:00:16;1.20;99.90
680;DHT22;322;48.846;9.230;2023-01-26T17:02:46;1.20;99.90
680;DHT22;322;48.846;9.230;2023-01-26T17:05:15;1.20;99.90
680;DHT22;322;48.846;9.230;2023-01-26T17:07:43;1.20;99.90
680;DHT22;322;48.846;9.230;2023-01-26T17:10:11;1.30;99.90
680;DHT22;322;48.846;9.230;2023-01-26T17:12:40;1.40;99.90
680;DHT22;322;48.846;9.230;2023-01-26T17:15:09;1.30;99.90
680;DHT22;322;48.846;9.230;2023-01-26T17:17:36;1.20;99.90
680;DHT22;322;48.846;9.230;2023-01-26T17:20:04;1.00;99.90
680;DHT22;322;48.846;9.230;2023-01-26T17:22:31;0.90;99.90